Time;durP1;ratioP1;P1;durP2;ratioP2;P2;SDS_P1;SDS_P2;PMS_P1;PMS_P2;Temp;Humidity;BMP_temperature;BMP_pressure;BME280_temperature;BME280_humidity;BME280_pressure;Samples;Min_cycle;Max_cycle;Signal;HPM_P1;HPM_P2
2022/10/26 00:00:15;;;;;;;21.10;7.18;;;;;;;-1.12;64.67;100378.78;6039857;23;20429;-84
2022/10/26 00:02:40;;;;;;;17.92;6.88;;;;;;;-0.57;65.51;100480.19;6097625;23;20022;-80
2022/10/26 00:05:07;;;;;;;17.20;7.75;;;;;;;-0.21;65.55;100551.75;6097914;23;20423;-79
2022/10/26 00:07:33;;;;;;;15.18;6.35;;;;;;;-0.48;64.93;100516.44;6098959;23;20076;-81
2022/10/26 00:09:59;;;;;;;13.90;6.05;;;;;;;-0.51;65.23;100530.72;6074926;23;20042;-80
2022/10/26 00:12:24;;;;;;;13.93;6.72;;;;;;;-0.42;65.41;100545.63;6049351;23;20507;-80
2022/10/26 00:14:50;;;;;;;16.27;6.40;;;;;;;-0.47;65.45;100538.63;6073017;23;20045;-81
2022/10/26 00:17:17;;;;;;;13.30;6.05;;;;;;;-0.57;66.15;100510.00;6048842;23;20418;-79
2022/10/26 00:19:42;;;;;;;12.50;6.03;;;;;;;-0.35;66.27;100543.47;6108105;23;20018;-78
2022/10/26 00:22:08;;;;;;;16.42;6.72;;;;;;;-0.62;65.65;100507.19;6084257;23;20025;-78
2022/10/26 00:24:34;;;;;;;12.80;7.05;;;;;;;-0.54;65.88;100536.56;6082121;23;20014;-81
2022/10/26 00:27:00;;;;;;;13.52;5.72;;;;;;;-0.69;65.25;100534.16;6097909;23;20089;-80
2022/10/26 00:29:26;;;;;;;14.27;6.53;;;;;;;-0.70;65.41;100534.97;6097852;23;20026;-81
2022/10/26 00:31:52;;;;;;;11.90;5.18;;;;;;;-0.62;66.58;100536.22;6097788;23;20022;-82
2022/10/26 00:34:18;;;;;;;15.80;6.00;;;;;;;-0.68;65.36;100538.47;6097294;23;20103;-80
2022/10/26 00:36:44;;;;;;;11.63;5.88;;;;;;;-0.73;66.15;100529.69;6047905;23;20038;-82
2022/10/26 00:39:12;;;;;;;12.75;5.05;;;;;;;-0.70;66.04;100541.75;6097765;23;20342;-78
2022/10/26 00:41:38;;;;;;;10.48;5.30;;;;;;;-0.86;65.80;100524.78;6047902;23;20105;-81
2022/10/26 00:44:54;;;;;;;16.63;5.90;;;;;;;-0.80;66.40;100538.75;6098117;23;20089;-81
2022/10/26 00:47:29;;;;;;;12.43;5.65;;;;;;;-0.75;66.68;100538.97;6072106;23;20025;-81
2022/10/26 00:49:58;;;;;;;12.70;5.32;;;;;;;-0.75;66.73;100531.28;6104463;23;20089;-79
2022/10/26 00:52:24;;;;;;;11.35;5.35;;;;;;;-0.71;66.74;100535.75;6083842;23;20002;-78
2022/10/26 00:54:53;;;;;;;16.10;5.43;;;;;;;-0.70;66.29;100534.97;6075376;23;20022;-80
2022/10/26 00:57:20;;;;;;;14.38;5.53;;;;;;;-0.69;66.83;100525.63;6096854;23;20037;-78
2022/10/26 00:59:47;;;;;;;12.93;5.35;;;;;;;-0.76;65.99;100534.66;6067390;23;20018;-77
2022/10/26 01:02:12;;;;;;;14.23;6.55;;;;;;;-0.80;66.49;100522.53;6081305;23;20143;-79
2022/10/26 01:04:39;;;;;;;12.95;5.80;;;;;;;-0.97;66.32;100498.72;6106382;23;20516;-82
2022/10/26 01:07:07;;;;;;;17.38;5.82;;;;;;;-0.81;67.20;100520.78;6055419;23;20048;-80
2022/10/26 01:09:33;;;;;;;10.25;5.88;;;;;;;-1.01;66.79;100501.91;6100874;23;20026;-79
2022/10/26 01:11:59;;;;;;;15.60;5.78;;;;;;;-0.76;66.39;100524.44;6076612;23;20046;-80
2022/10/26 01:14:27;;;;;;;18.75;5.43;;;;;;;-0.67;67.45;100524.88;6101844;23;20069;-81
2022/10/26 01:17:19;;;;;;;17.17;5.97;;;;;;;-0.56;67.58;100516.88;6096568;23;20523;-82
2022/10/26 01:20:22;;;;;;;16.33;6.13;;;;;;;-0.37;67.26;100527.16;6047060;23;20025;-78
2022/10/26 01:23:16;;;;;;;11.10;5.10;;;;;;;-0.54;66.56;100526.34;6095153;23;20014;-79
2022/10/26 01:25:57;;;;;;;14.68;5.30;;;;;;;-0.66;66.36;100528.34;6046168;23;20067;-80
2022/10/26 01:28:41;;;;;;;15.20;4.90;;;;;;;-0.71;66.05;100527.22;6096711;23;20021;-78
2022/10/26 01:31:15;;;;;;;14.68;5.47;;;;;;;-0.77;67.46;100517.56;6096368;23;20070;-82
2022/10/26 01:33:56;;;;;;;10.60;5.63;;;;;;;-1.01;66.81;100491.69;6070824;23;20018;-81
2022/10/26 01:36:41;;;;;;;9.60;4.60;;;;;;;-0.94;66.99;100515.06;6096628;23;20057;-80
2022/10/26 01:39:17;;;;;;;13.90;5.60;;;;;;;-0.92;65.99;100522.81;6076759;23;20413;-80
2022/10/26 01:41:47;;;;;;;14.75;5.00;;;;;;;-0.85;66.82;100524.00;6023368;23;20042;-83
2022/10/26 01:44:43;;;;;;;11.43;5.15;;;;;;;-0.84;67.17;100518.94;6048598;23;20073;-81
2022/10/26 01:47:12;;;;;;;16.63;6.30;;;;;;;-0.81;67.68;100515.69;6055569;23;20360;-80
2022/10/26 01:49:42;;;;;;;16.25;5.80;;;;;;;-0.66;67.38;100516.41;6072472;23;20073;-80
2022/10/26 01:52:09;;;;;;;11.85;5.93;;;;;;;-0.66;66.94;100495.09;6071642;23;20038;-80
2022/10/26 01:54:37;;;;;;;13.35;5.18;;;;;;;-0.63;66.63;100521.69;6047752;23;20490;-82
2022/10/26 01:57:09;;;;;;;13.20;5.40;;;;;;;-0.74;66.66;100514.28;6070690;23;20050;-78
2022/10/26 01:59:44;;;;;;;14.75;5.55;;;;;;;-0.77;67.26;100525.22;6096259;23;20066;-80
2022/10/26 02:02:19;;;;;;;12.38;5.10;;;;;;;-0.80;67.43;100528.53;6096194;23;20523;-82
2022/10/26 02:04:45;;;;;;;12.80;5.75;;;;;;;-0.73;67.49;100521.16;6071148;23;20014;-81
2022/10/26 02:08:09;;;;;;;17.70;5.50;;;;;;;-0.75;66.99;100523.63;6070741;23;20023;-79
2022/10/26 02:11:14;;;;;;;8.75;4.72;;;;;;;-0.78;67.39;100521.81;5940363;24;20328;-81
2022/10/26 02:13:46;;;;;;;14.20;5.07;;;;;;;-0.68;67.10;100523.13;6105102;23;20093;-78
2022/10/26 02:16:18;;;;;;;12.23;4.95;;;;;;;-0.51;67.59;100515.38;6105983;23;20076;-79
2022/10/26 02:18:54;;;;;;;10.45;5.90;;;;;;;-0.43;67.30;100508.06;6099894;23;20029;-80
2022/10/26 02:21:28;;;;;;;16.38;6.30;;;;;;;-0.45;65.98;100520.78;6096834;23;20363;-83
2022/10/26 02:23:57;;;;;;;15.30;6.00;;;;;;;-0.45;66.51;100520.78;6070628;23;20014;-81
2022/10/26 02:26:27;;;;;;;15.48;6.00;;;;;;;-0.52;66.30;100505.94;6046637;23;20555;-80
2022/10/26 02:28:57;;;;;;;21.73;6.95;;;;;;;-0.43;66.70;100525.97;6094684;23;20412;-79
2022/10/26 02:31:25;;;;;;;17.27;6.38;;;;;;;-0.38;67.10;100533.06;6070804;23;20018;-81
2022/10/26 02:33:53;;;;;;;18.88;5.85;;;;;;;-0.42;67.83;100503.03;6071235;23;20026;-84
2022/10/26 02:36:27;;;;;;;12.45;5.20;;;;;;;-0.25;66.90;100516.63;6071270;23;20022;-80
2022/10/26 02:38:57;;;;;;;16.17;5.10;;;;;;;-0.13;66.76;100535.88;6071583;23;20018;-83
2022/10/26 02:41:27;;;;;;;13.18;5.30;;;;;;;-0.25;66.76;100531.97;6048262;23;20054;-83
2022/10/26 02:44:15;;;;;;;17.23;5.40;;;;;;;-0.48;67.04;100492.50;6098645;23;20034;-82
2022/10/26 02:46:43;;;;;;;13.02;4.97;;;;;;;-0.16;67.42;100531.53;6097673;23;20049;-81
2022/10/26 02:49:09;;;;;;;10.02;4.95;;;;;;;-0.08;67.63;100530.16;6096459;23;20018;-80
2022/10/26 02:51:38;;;;;;;12.27;5.57;;;;;;;0.05;66.98;100543.53;6047290;23;20341;-82
2022/10/26 02:54:13;;;;;;;15.10;5.65;;;;;;;0.03;67.47;100519.56;6049281;23;20464;-82
2022/10/26 02:56:49;;;;;;;10.70;5.18;;;;;;;0.10;66.40;100531.84;6077015;23;20018;-80
2022/10/26 02:59:19;;;;;;;11.13;5.25;;;;;;;-0.20;65.77;100511.72;6108469;23;20030;-79
2022/10/26 03:01:46;;;;;;;12.05;5.85;;;;;;;-0.34;65.70;100526.41;6107887;23;20018;-79
2022/10/26 03:04:12;;;;;;;12.68;6.28;;;;;;;-0.42;66.55;100509.81;6061999;23;20074;-82
2022/10/26 03:06:38;;;;;;;9.88;5.60;;;;;;;-0.47;66.88;100519.84;6073181;23;20026;-84
2022/10/26 03:09:04;;;;;;;18.77;5.70;;;;;;;-0.58;66.89;100498.00;6075066;23;20024;-83
2022/10/26 03:11:30;;;;;;;12.43;5.50;;;;;;;-0.51;65.78;100526.50;6071577;23;20109;-82
2022/10/26 03:13:56;;;;;;;10.63;6.15;;;;;;;-0.64;67.51;100496.03;6047699;23;20025;-80
2022/10/26 03:16:22;;;;;;;14.43;6.03;;;;;;;-0.49;67.13;100526.56;6095108;23;20023;-82
2022/10/26 03:18:51;;;;;;;15.75;5.85;;;;;;;-0.68;66.32;100500.13;6071465;23;20014;-86
2022/10/26 03:21:17;;;;;;;11.10;5.47;;;;;;;-0.73;66.15;100511.78;6047887;23;20053;-83
2022/10/26 03:23:43;;;;;;;13.55;6.10;;;;;;;-0.68;66.84;100533.34;6097069;23;20397;-82
2022/10/26 03:26:09;;;;;;;14.43;6.28;;;;;;;-0.80;66.74;100517.44;6047577;23;20491;-83
2022/10/26 03:28:35;;;;;;;10.32;5.78;;;;;;;-0.78;66.88;100531.16;6048955;23;20025;-81
2022/10/26 03:31:01;;;;;;;12.77;6.03;;;;;;;-0.92;67.30;100505.78;6050133;23;20018;-80
2022/10/26 03:33:27;;;;;;;9.10;5.35;;;;;;;-0.74;67.01;100530.50;6050316;23;20085;-80
2022/10/26 03:35:55;;;;;;;12.48;5.32;;;;;;;-0.78;67.37;100524.38;6074818;23;20020;-83
2022/10/26 03:38:21;;;;;;;10.52;5.65;;;;;;;-0.87;66.72;100523.91;6074564;23;20018;-79
2022/10/26 03:40:51;;;;;;;11.95;5.20;;;;;;;-0.94;66.50;100509.09;6075682;23;20027;-80
2022/10/26 03:43:17;;;;;;;8.90;5.35;;;;;;;-1.16;67.55;100471.38;6082172;23;20022;-79
2022/10/26 03:45:47;;;;;;;9.07;5.25;;;;;;;-0.88;67.46;100511.06;6080895;23;20025;-80
2022/10/26 03:48:13;;;;;;;9.40;5.03;;;;;;;-0.81;67.61;100514.00;6104237;23;20022;-80
2022/10/26 03:50:40;;;;;;;9.02;4.82;;;;;;;-0.84;68.07;100505.31;6080010;23;20167;-86
2022/10/26 03:53:09;;;;;;;10.10;5.30;;;;;;;-0.80;67.20;100509.78;6056643;23;20523;-83
2022/10/26 03:55:40;;;;;;;8.90;5.43;;;;;;;-0.92;67.44;100493.03;6103728;23;20154;-86
2022/10/26 03:58:06;;;;;;;10.02;5.15;;;;;;;-0.82;67.43;100525.00;6103257;23;20349;-81
2022/10/26 04:00:32;;;;;;;8.32;4.78;;;;;;;-1.12;66.87;100473.28;6051995;23;20512;-81
2022/10/26 04:02:59;;;;;;;13.20;5.75;;;;;;;-1.09;67.72;100468.34;6028816;23;20018;-83
2022/10/26 04:05:27;;;;;;;9.13;5.40;;;;;;;-0.83;68.33;100524.94;6077903;23;20014;-87
2022/10/26 04:07:55;;;;;;;8.63;5.53;;;;;;;-0.97;68.17;100498.72;6099377;23;20018;-81
2022/10/26 04:10:21;;;;;;;8.80;5.40;;;;;;;-1.53;67.41;100407.47;6088936;23;20029;-80
2022/10/26 04:12:47;;;;;;;8.48;5.45;;;;;;;-1.02;67.47;100492.50;6113482;23;20032;-82
2022/10/26 04:15:14;;;;;;;12.23;5.50;;;;;;;-1.26;68.27;100439.41;6114613;23;20046;-81
2022/10/26 04:17:40;;;;;;;11.65;5.93;;;;;;;-0.94;67.58;100480.97;6086488;23;20117;-80
2022/10/26 04:20:07;;;;;;;10.00;6.03;;;;;;;-0.88;68.09;100468.47;6102828;23;20456;-84
2022/10/26 04:22:34;;;;;;;11.05;5.93;;;;;;;-0.81;67.48;100478.22;6073999;23;20018;-82
2022/10/26 04:24:59;;;;;;;13.25;5.80;;;;;;;-0.58;67.90;100509.09;6079925;23;20018;-87
2022/10/26 04:27:26;;;;;;;13.90;5.78;;;;;;;-0.51;68.05;100513.72;6102172;23;20160;-86
2022/10/26 04:29:52;;;;;;;12.63;6.05;;;;;;;-0.33;68.33;100488.09;6076433;23;20082;-81
2022/10/26 04:32:18;;;;;;;13.07;6.28;;;;;;;0.03;67.86;100535.78;6052490;23;20042;-86
2022/10/26 04:34:47;;;;;;;14.48;6.20;;;;;;;-0.24;67.35;100486.78;6049119;23;20042;-83
2022/10/26 04:37:13;;;;;;;13.15;6.05;;;;;;;-0.17;67.35;100483.72;6073078;23;20089;-84
2022/10/26 04:39:39;;;;;;;13.57;6.80;;;;;;;0.10;67.36;100489.19;6076001;23;20014;-86
2022/10/26 04:42:05;;;;;;;11.50;5.90;;;;;;;0.44;68.05;100498.34;6075485;23;20030;-82
2022/10/26 04:44:32;;;;;;;12.43;6.57;;;;;;;0.79;67.96;100508.34;6107418;23;20083;-81
2022/10/26 04:46:58;;;;;;;11.07;6.15;;;;;;;1.38;68.02;100541.53;6085950;23;20026;-83
2022/10/26 04:49:24;;;;;;;9.98;5.93;;;;;;;1.67;66.42;100500.72;6113380;23;20022;-83
2022/10/26 04:51:51;;;;;;;9.50;6.18;;;;;;;1.78;65.83;100460.06;6063696;23;20397;-80
2022/10/26 04:54:17;;;;;;;13.93;6.63;;;;;;;2.95;67.29;100521.56;6075709;23;20022;-84
2022/10/26 04:56:44;;;;;;;9.52;5.95;;;;;;;4.07;66.17;100507.88;6099831;23;20409;-86
2022/10/26 04:59:10;;;;;;;12.82;6.53;;;;;;;5.11;65.87;100500.31;6104264;23;20022;-86
2022/10/26 05:01:36;;;;;;;9.85;6.38;;;;;;;6.02;64.78;100499.84;6053358;23;20022;-83
2022/10/26 05:04:02;;;;;;;12.18;5.95;;;;;;;6.32;61.61;100496.09;6055094;23;20037;-82
2022/10/26 05:06:29;;;;;;;13.30;6.22;;;;;;;6.34;62.45;100431.53;6081895;23;20061;-84
2022/10/26 05:08:56;;;;;;;9.38;6.25;;;;;;;7.03;59.26;100486.19;6109676;23;20050;-82
2022/10/26 05:11:27;;;;;;;9.85;6.15;;;;;;;6.74;59.23;100498.59;6059904;23;20022;-81
2022/10/26 05:13:53;;;;;;;10.65;6.10;;;;;;;6.05;58.20;100474.91;6109860;23;20162;-79
2022/10/26 05:16:19;;;;;;;9.10;5.55;;;;;;;5.16;57.90;100451.41;6082636;23;20100;-80
2022/10/26 05:18:48;;;;;;;10.13;6.45;;;;;;;4.68;58.72;100422.75;6037206;23;20334;-83
2022/10/26 05:21:23;;;;;;;7.90;5.50;;;;;;;4.79;56.88;100505.53;6081494;23;20025;-83
2022/10/26 05:23:58;;;;;;;7.25;5.10;;;;;;;3.49;57.68;100397.22;6085890;23;20011;-82
2022/10/26 05:26:28;;;;;;;7.70;5.30;;;;;;;3.31;57.33;100438.72;6048362;23;20029;-79
2022/10/26 05:28:56;;;;;;;6.82;5.03;;;;;;;2.39;58.88;100289.31;6097297;23;20010;-82
2022/10/26 05:31:33;;;;;;;8.10;4.85;;;;;;;3.76;59.03;100499.25;6095406;23;20045;-80
2022/10/26 05:33:59;;;;;;;8.68;5.00;;;;;;;3.25;58.67;100399.94;6077596;23;20023;-83
2022/10/26 05:36:25;;;;;;;6.55;4.90;;;;;;;3.63;58.10;100520.31;6113196;23;20062;-81
2022/10/26 05:38:51;;;;;;;6.45;4.57;;;;;;;3.51;59.24;100507.94;6091881;23;20018;-82
2022/10/26 05:41:20;;;;;;;7.43;4.65;;;;;;;3.51;58.61;100518.22;6076962;23;20020;-82
2022/10/26 05:43:47;;;;;;;5.85;4.63;;;;;;;3.57;59.18;100518.38;6099714;23;20050;-83
2022/10/26 05:46:13;;;;;;;6.72;4.80;;;;;;;3.63;58.77;100476.53;6073829;23;20018;-86
2022/10/26 05:48:39;;;;;;;6.97;4.65;;;;;;;3.94;58.31;100524.69;6048685;23;20456;-84
2022/10/26 05:51:11;;;;;;;6.72;4.70;;;;;;;3.96;58.66;100486.09;6072672;23;20109;-86
2022/10/26 05:53:39;;;;;;;5.95;4.28;;;;;;;3.96;58.38;100473.22;6072835;23;20018;-85
2022/10/26 05:56:20;;;;;;;6.97;4.45;;;;;;;4.15;57.40;100524.41;6098449;23;20026;-87
2022/10/26 05:58:48;;;;;;;7.80;4.53;;;;;;;3.88;58.02;100499.59;6073923;23;20396;-84
2022/10/26 06:01:26;;;;;;;7.03;4.80;;;;;;;4.16;57.50;100523.59;6026135;23;20026;-84
2022/10/26 06:04:13;;;;;;;8.45;4.85;;;;;;;4.05;57.43;100530.16;6097815;23;20103;-84
2022/10/26 06:06:45;;;;;;;8.27;4.65;;;;;;;4.26;58.63;100529.03;6096756;23;20045;-82
2022/10/26 06:09:14;;;;;;;9.85;4.55;;;;;;;4.50;56.37;100501.38;6048171;23;20464;-86
2022/10/26 06:11:40;;;;;;;7.82;4.47;;;;;;;4.81;58.14;100519.34;6073521;23;20022;-87
2022/10/26 06:14:08;;;;;;;6.40;4.07;;;;;;;5.06;57.43;100513.09;6049934;23;20038;-81
2022/10/26 06:17:00;;;;;;;9.68;4.57;;;;;;;4.90;56.96;100490.34;6075410;23;20022;-84
2022/10/26 06:19:45;;;;;;;8.80;4.47;;;;;;;4.95;55.53;100520.56;6051897;23;20074;-84
2022/10/26 06:22:33;;;;;;;8.77;4.88;;;;;;;4.08;55.16;100388.56;6071420;23;20018;-85
2022/10/26 06:30:10;;;;;;;8.25;4.80;;;;;;;5.56;55.66;100525.47;6045256;23;20175;-87
2022/10/26 06:36:28;;;;;;;12.02;5.20;;;;;;;4.05;54.87;100264.84;6025485;23;20022;-88
2022/10/26 06:39:35;;;;;;;8.82;5.25;;;;;;;4.57;54.99;100365.78;6059397;23;20018;-88
2022/10/26 06:42:27;;;;;;;7.45;5.18;;;;;;;5.23;54.25;100522.97;6044830;23;20082;-91
2022/10/26 06:45:32;;;;;;;6.67;4.83;;;;;;;5.16;55.14;100518.50;6053949;23;20025;-90
2022/10/26 06:48:30;;;;;;;7.70;5.50;;;;;;;4.18;55.10;100346.75;6060182;23;20277;-86
2022/10/26 06:51:00;;;;;;;7.88;5.30;;;;;;;5.11;56.06;100482.25;6039877;23;20010;-86
2022/10/26 06:54:04;;;;;;;7.38;5.47;;;;;;;4.73;54.75;100373.88;6032920;23;20019;-86
2022/10/26 06:56:36;;;;;;;8.45;5.97;;;;;;;4.65;54.99;100361.66;6075827;23;20014;-86
2022/10/26 06:59:34;;;;;;;10.30;6.72;;;;;;;4.73;54.76;100336.09;6086171;23;20117;-86
2022/10/26 07:02:00;;;;;;;9.95;6.65;;;;;;;5.35;53.59;100473.34;6071810;23;20010;-82
2022/10/26 07:04:26;;;;;;;9.95;6.45;;;;;;;4.16;53.14;100355.28;6073013;23;20006;-86
2022/10/26 07:06:56;;;;;;;12.63;6.55;;;;;;;4.82;54.50;100467.78;6097663;23;20028;-86
2022/10/26 07:09:22;;;;;;;9.25;6.25;;;;;;;5.13;54.26;100458.25;6075091;23;20045;-85
2022/10/26 07:11:51;;;;;;;12.38;7.05;;;;;;;5.54;55.06;100444.53;6072894;23;20075;-86
2022/10/26 07:14:18;;;;;;;12.80;7.05;;;;;;;4.68;53.32;100317.91;6072816;23;19999;-85
2022/10/26 07:16:44;;;;;;;10.15;6.90;;;;;;;5.51;53.29;100505.56;6044398;23;20018;-84
2022/10/26 07:19:10;;;;;;;10.73;6.25;;;;;;;5.64;54.74;100519.63;6102270;23;20021;-84
2022/10/26 07:21:36;;;;;;;8.35;5.40;;;;;;;5.41;54.06;100461.44;6052095;23;20045;-82
2022/10/26 07:24:04;;;;;;;7.47;5.25;;;;;;;5.53;54.62;100437.63;6078908;23;20018;-86
2022/10/26 07:26:38;;;;;;;8.85;5.22;;;;;;;5.36;53.68;100336.59;6080193;23;20457;-86
2022/10/26 07:29:04;;;;;;;7.55;5.18;;;;;;;5.21;54.16;100287.22;6078692;23;20138;-85
2022/10/26 07:31:30;;;;;;;9.00;4.38;;;;;;;6.69;53.53;100508.00;6103183;23;20117;-85
2022/10/26 07:33:59;;;;;;;9.35;4.25;;;;;;;6.77;53.71;100459.84;6076786;23;20532;-87
2022/10/26 07:36:41;;;;;;;7.18;4.18;;;;;;;6.35;53.04;100349.66;6053468;23;20018;-85
2022/10/26 07:39:16;;;;;;;5.40;4.03;;;;;;;6.81;51.85;100428.03;6076177;23;20092;-83
2022/10/26 07:41:43;;;;;;;6.53;4.03;;;;;;;6.80;52.12;100456.47;6075451;23;20018;-84
2022/10/26 07:44:09;;;;;;;5.95;3.38;;;;;;;6.67;50.35;100452.78;6078199;23;20065;-82
2022/10/26 07:46:39;;;;;;;5.57;3.75;;;;;;;7.11;51.75;100530.31;6078441;23;20021;-82
2022/10/26 07:49:05;;;;;;;8.48;3.33;;;;;;;6.78;50.39;100457.31;6054127;23;20018;-82
2022/10/26 07:51:36;;;;;;;5.00;3.03;;;;;;;5.90;50.05;100331.63;6050775;23;20086;-83
2022/10/26 07:54:06;;;;;;;6.32;3.05;;;;;;;6.72;51.29;100399.44;6053266;23;20026;-87
2022/10/26 07:56:32;;;;;;;7.60;3.35;;;;;;;7.52;50.22;100514.56;6054264;23;20082;-87
2022/10/26 07:59:02;;;;;;;6.95;3.63;;;;;;;6.97;49.60;100381.69;6054634;23;20050;-87
2022/10/26 08:01:28;;;;;;;6.90;3.40;;;;;;;7.30;49.21;100429.63;6091296;23;20026;-85
2022/10/26 08:03:55;;;;;;;4.95;3.28;;;;;;;7.97;49.01;100532.47;6039718;23;20026;-87
2022/10/26 08:06:24;;;;;;;5.95;3.20;;;;;;;7.50;50.18;100404.03;6089685;23;20025;-84
2022/10/26 08:08:51;;;;;;;5.55;3.35;;;;;;;7.38;48.31;100403.00;6031478;23;20070;-87
2022/10/26 08:11:18;;;;;;;7.53;3.38;;;;;;;8.11;48.60;100530.91;6054570;23;20026;-88
2022/10/26 08:13:47;;;;;;;8.90;3.20;;;;;;;7.89;49.59;100433.88;6031026;23;20057;-86
2022/10/26 08:16:16;;;;;;;4.50;3.17;;;;;;;7.75;47.02;100402.63;6054528;23;20021;-84
2022/10/26 08:18:58;;;;;;;6.75;3.40;;;;;;;8.23;47.37;100531.94;6054576;23;20029;-88
2022/10/26 08:21:27;;;;;;;8.65;3.67;;;;;;;8.46;48.21;100520.97;6032099;23;20026;-83
2022/10/26 08:23:56;;;;;;;4.47;3.28;;;;;;;8.06;47.29;100433.22;6052710;23;20025;-86
2022/10/26 08:26:31;;;;;;;4.60;3.40;;;;;;;8.27;47.57;100455.94;6078375;23;20518;-86
2022/10/26 08:29:12;;;;;;;8.18;3.90;;;;;;;7.63;47.63;100309.19;6076058;23;20022;-86
2022/10/26 08:31:41;;;;;;;8.07;3.97;;;;;;;8.67;47.18;100445.09;6056021;23;20026;-88
2022/10/26 08:34:08;;;;;;;7.63;4.00;;;;;;;8.98;46.90;100425.47;6105770;23;20029;-88
2022/10/26 08:36:38;;;;;;;5.75;4.13;;;;;;;8.78;45.61;100390.69;6033722;23;20088;-89
2022/10/26 08:39:04;;;;;;;13.20;4.10;;;;;;;9.31;45.15;100460.34;6054263;23;20050;-86
2022/10/26 08:41:37;;;;;;;6.10;3.30;;;;;;;9.50;45.84;100456.09;6078521;23;20049;-88
2022/10/26 08:44:48;;;;;;;4.57;3.10;;;;;;;10.01;45.03;100433.84;6030862;23;20041;-87
2022/10/26 08:47:25;;;;;;;5.57;3.03;;;;;;;10.26;44.15;100419.16;6070002;23;20022;-86
2022/10/26 08:49:55;;;;;;;4.25;3.30;;;;;;;10.15;43.03;100483.31;6057707;23;20022;-88
2022/10/26 08:52:28;;;;;;;4.05;2.92;;;;;;;9.38;43.10;100442.19;6106157;23;20030;-87
2022/10/26 08:54:59;;;;;;;7.30;3.15;;;;;;;9.03;43.75;100382.25;6058049;23;20025;-86
2022/10/26 08:57:40;;;;;;;6.15;3.78;;;;;;;9.27;44.36;100419.59;6064000;23;20018;-88
2022/10/26 09:00:34;;;;;;;4.38;3.00;;;;;;;9.02;43.59;100387.44;6056187;23;20022;-88
2022/10/26 09:03:00;;;;;;;6.88;2.92;;;;;;;9.89;43.50;100486.66;6031027;23;20117;-87
2022/10/26 09:06:13;;;;;;;5.18;2.88;;;;;;;10.23;43.03;100534.47;6082605;23;20024;-88
2022/10/26 09:08:42;;;;;;;5.30;3.13;;;;;;;10.09;43.40;100510.13;6033308;23;20014;-86
2022/10/26 09:11:35;;;;;;;4.78;2.80;;;;;;;9.76;42.93;100459.72;6079559;23;20022;-86
2022/10/26 09:14:18;;;;;;;5.07;2.60;;;;;;;9.56;42.02;100454.41;6053030;23;20018;-86
2022/10/26 09:17:17;;;;;;;5.63;2.70;;;;;;;9.50;43.47;100515.00;6065424;23;20042;-88
2022/10/26 09:20:25;;;;;;;4.82;2.85;;;;;;;9.43;42.75;100516.69;6083202;23;20129;-84
2022/10/26 09:22:54;;;;;;;6.55;3.03;;;;;;;9.78;43.17;100510.00;6055727;23;20022;-85
2022/10/26 09:25:23;;;;;;;8.70;2.85;;;;;;;10.39;41.99;100506.81;6033704;23;20017;-85
2022/10/26 09:28:01;;;;;;;7.00;4.00;;;;;;;9.59;42.74;100328.00;6079719;23;20041;-87
2022/10/26 09:30:31;;;;;;;7.68;4.03;;;;;;;10.45;42.83;100430.53;6055702;23;20025;-86
2022/10/26 09:33:14;;;;;;;5.57;3.80;;;;;;;10.75;41.44;100496.47;6058544;23;20018;-84
2022/10/26 09:36:05;;;;;;;5.78;3.47;;;;;;;10.81;42.06;100495.63;6084030;23;20018;-84
2022/10/26 09:39:12;;;;;;;5.55;3.13;;;;;;;10.72;40.72;100491.25;6036529;23;20022;-84
2022/10/26 09:42:17;;;;;;;4.18;3.00;;;;;;;9.89;41.12;100411.25;6057792;23;20042;-85
2022/10/26 09:45:23;;;;;;;6.22;2.60;;;;;;;10.43;40.80;100494.69;6000959;23;20018;-85
2022/10/26 09:48:21;;;;;;;4.55;3.22;;;;;;;9.58;41.05;100403.31;6064673;23;20074;-86
2022/10/26 09:50:51;;;;;;;6.05;2.88;;;;;;;9.11;40.40;100356.31;6046578;23;20353;-84
2022/10/26 09:53:21;;;;;;;3.88;2.67;;;;;;;9.72;40.56;100508.19;6052209;23;20022;-84
2022/10/26 09:56:05;;;;;;;5.40;3.30;;;;;;;9.62;41.19;100509.03;6032666;23;20026;-83
2022/10/26 09:58:58;;;;;;;5.95;3.45;;;;;;;9.50;41.47;100496.81;6078539;23;20051;-85
2022/10/26 10:01:34;;;;;;;5.45;3.13;;;;;;;8.73;41.80;100433.03;6054861;23;20073;-85
2022/10/26 10:04:22;;;;;;;6.68;3.35;;;;;;;8.97;42.45;100509.38;6030470;23;20400;-85
2022/10/26 10:07:15;;;;;;;5.80;3.67;;;;;;;8.73;42.67;100487.53;6063896;23;20062;-86
2022/10/26 10:09:41;;;;;;;4.65;2.88;;;;;;;7.54;43.19;100315.13;6084720;23;20025;-84
2022/10/26 10:12:20;;;;;;;5.57;3.38;;;;;;;8.55;43.35;100501.22;6037707;23;20049;-84
2022/10/26 10:15:01;;;;;;;5.07;2.85;;;;;;;8.05;43.36;100442.72;6065411;23;20019;-87
2022/10/26 10:17:32;;;;;;;5.18;3.30;;;;;;;7.68;44.28;100367.13;6085071;23;20018;-84
2022/10/26 10:20:18;;;;;;;6.05;3.05;;;;;;;7.77;44.06;100367.25;6034581;23;20046;-85
2022/10/26 10:23:00;;;;;;;6.88;2.90;;;;;;;8.22;43.39;100452.41;6104530;23;20364;-85
2022/10/26 10:25:38;;;;;;;3.15;2.45;;;;;;;8.28;43.98;100470.59;6104409;23;20014;-88
2022/10/26 10:28:41;;;;;;;5.30;3.00;;;;;;;8.35;44.21;100500.94;6093394;23;20038;-86
2022/10/26 10:31:36;;;;;;;5.57;3.38;;;;;;;7.52;44.50;100381.59;6031926;23;20031;-87
2022/10/26 10:34:21;;;;;;;8.30;3.38;;;;;;;7.61;44.81;100376.53;6059047;23;20015;-85
2022/10/26 10:36:51;;;;;;;6.20;3.00;;;;;;;8.28;44.50;100517.28;6068459;23;20017;-86
2022/10/26 10:39:41;;;;;;;3.95;2.67;;;;;;;7.02;44.08;100292.94;6067818;23;20018;-86
2022/10/26 10:42:26;;;;;;;5.97;3.40;;;;;;;6.99;44.73;100302.38;6090289;23;20033;-87
2022/10/26 10:45:00;;;;;;;6.88;3.67;;;;;;;6.89;44.59;100319.47;6094043;23;20014;-89
2022/10/26 10:47:38;;;;;;;8.47;3.00;;;;;;;7.31;44.68;100389.94;6070112;23;20077;-88
2022/10/26 10:50:19;;;;;;;5.20;2.70;;;;;;;6.67;44.74;100279.50;6097736;23;20255;-85
2022/10/26 10:52:49;;;;;;;5.57;3.17;;;;;;;7.27;45.31;100378.69;6048224;23;20010;-86
2022/10/26 10:56:31;;;;;;;;;;;;;;;;;;;;;
2022/10/26 10:59:44;;;;;;;11.80;4.32;;;;;;;7.14;44.92;100381.94;6091882;23;20010;-84
2022/10/26 11:02:54;;;;;;;7.65;3.03;;;;;;;7.64;44.82;100502.63;6068183;23;20037;-88
2022/10/26 11:06:47;;;;;;;7.90;3.50;;;;;;;7.63;45.73;100501.75;6114942;23;20014;-85
2022/10/26 11:09:17;;;;;;;7.43;3.70;;;;;;;7.41;45.79;100443.59;5981313;24;20004;-87
2022/10/26 11:11:54;;;;;;;4.55;2.72;;;;;;;7.73;45.36;100526.06;5999535;23;20014;-88
2022/10/26 11:14:44;;;;;;;3.95;2.72;;;;;;;6.71;45.29;100362.34;6072846;23;20009;-86
2022/10/26 11:17:23;;;;;;;6.82;2.85;;;;;;;7.12;45.46;100427.63;6072577;23;20017;-86
2022/10/26 11:20:14;;;;;;;7.30;3.42;;;;;;;7.53;45.39;100508.53;6049333;23;20015;-85
2022/10/26 11:23:22;;;;;;;4.25;2.40;;;;;;;7.38;45.24;100516.06;6093477;23;20031;-86
2022/10/26 11:26:02;;;;;;;5.85;2.78;;;;;;;7.18;46.45;100503.66;5945232;23;20020;-82
2022/10/26 11:29:03;;;;;;;3.25;2.15;;;;;;;7.11;46.16;100504.41;6089787;23;20022;-84
2022/10/26 11:32:23;;;;;;;5.30;2.67;;;;;;;6.03;46.30;100346.56;6064645;23;20333;-87
2022/10/26 11:35:51;;;;;;;6.80;2.70;;;;;;;6.07;47.19;100351.78;5968300;23;20018;-84
2022/10/26 11:38:38;;;;;;;6.82;2.88;;;;;;;6.29;46.65;100386.63;6110318;23;20063;-83
2022/10/26 11:41:48;;;;;;;7.60;3.17;;;;;;;6.16;46.89;100386.41;6094476;23;20058;-86
2022/10/26 11:45:07;;;;;;;4.30;2.47;;;;;;;6.30;46.78;100428.00;6090657;23;20010;-84
2022/10/26 11:47:48;;;;;;;5.78;3.22;;;;;;;6.41;47.47;100424.75;6108774;23;20026;-84
2022/10/26 11:51:08;;;;;;;12.98;3.42;;;;;;;6.29;46.88;100405.56;6058649;23;20018;-82
2022/10/26 11:53:41;;;;;;;10.20;3.80;;;;;;;5.83;47.03;100317.72;6085336;23;20022;-84
2022/10/26 11:57:09;;;;;;;4.30;2.60;;;;;;;5.63;47.59;100288.91;6077539;23;20014;-86
2022/10/26 12:00:12;;;;;;;6.82;3.72;;;;;;;5.75;47.11;100275.38;6065313;23;20074;-84
2022/10/26 12:03:38;;;;;;;5.05;3.00;;;;;;;5.49;46.98;100256.81;6087462;23;20018;-86
2022/10/26 12:09:44;;;;;;;10.77;3.70;;;;;;;6.29;47.05;100422.81;6046914;23;20074;-85
2022/10/26 12:12:40;;;;;;;6.78;3.25;;;;;;;5.75;47.78;100375.22;6052305;23;20110;-85
2022/10/26 12:15:32;;;;;;;7.75;3.83;;;;;;;5.07;47.62;100281.81;6007150;23;20102;-84
2022/10/26 12:18:07;;;;;;;4.82;3.05;;;;;;;6.33;48.13;100487.50;6028618;23;20409;-83
2022/10/26 12:21:02;;;;;;;;;;;;;;;;;;;;;
2022/10/26 12:23:56;;;;;;;5.80;3.30;;;;;;;5.68;48.93;100372.53;6081454;23;20525;-84